Terminal Aerodrome Forecast
Issued by NWS

Home | Current Version | Previous Version | Text Only | Print | Product List | Glossary On
Versions: 1 2 3 4 5 6 7 8 9 10 11 12 13 14 15 16 17 18 19 20 21 22 23 24 25 26 27 28 29 30 31 32 33
000
FTAK31 PAFA 222330
TAFABT
TAF
PABT 222330Z 2300/2324 18004KT 4SM -RA BR FEW005 BKN015 OVC030
     FM230300 21004KT 6SM -RA BR BKN015 OVC025=

USA.gov is the U.S. government's official web portal to all federal, state and local government web resources and services.